Time;durP1;ratioP1;P1;durP2;ratioP2;P2;SDS_P1;SDS_P2;PMS_P1;PMS_P2;Temp;Humidity;BMP_temperature;BMP_pressure;BME280_temperature;BME280_humidity;BME280_pressure;Samples;Min_cycle;Max_cycle;Signal;HPM_P1;HPM_P2
2021/07/17 00:00:07;;;;;;;16.17;8.45;;;;;;;21.62;61.82;98501.50;4814969;29;20049;-81
2021/07/17 00:02:38;;;;;;;13.40;8.70;;;;;;;21.50;61.94;98491.28;4831509;29;20050;-79
2021/07/17 00:05:11;;;;;;;12.32;8.35;;;;;;;21.61;61.86;98497.09;4860378;29;20060;-79
2021/07/17 00:07:37;;;;;;;11.45;8.35;;;;;;;21.41;62.57;98487.13;4860955;29;20037;-79
2021/07/17 00:10:13;;;;;;;12.27;8.20;;;;;;;21.34;63.14;98494.47;4830166;29;20049;-79
2021/07/17 00:12:40;;;;;;;10.95;8.13;;;;;;;21.40;62.92;98499.06;4830140;29;20057;-79
2021/07/17 00:15:07;;;;;;;9.88;8.38;;;;;;;21.37;63.16;98499.47;4844769;29;20058;-79
2021/07/17 00:17:33;;;;;;;8.82;7.93;;;;;;;21.15;64.37;98506.19;4830057;29;20057;-80
2021/07/17 00:19:59;;;;;;;8.65;7.75;;;;;;;20.98;64.86;98503.88;4829683;29;20041;-79
2021/07/17 00:22:25;;;;;;;14.95;8.63;;;;;;;21.08;64.17;98506.19;4859985;29;20451;-79
2021/07/17 00:24:51;;;;;;;12.45;8.43;;;;;;;21.00;64.20;98504.50;4844452;29;20065;-80
2021/07/17 00:27:17;;;;;;;11.60;7.80;;;;;;;21.04;64.28;98505.75;4828993;29;20045;-80
2021/07/17 00:29:45;;;;;;;8.40;7.50;;;;;;;21.02;65.02;98505.13;4843921;29;20090;-80
2021/07/17 00:32:11;;;;;;;16.00;7.22;;;;;;;21.03;64.40;98503.28;4843613;29;20149;-79
2021/07/17 00:34:37;;;;;;;13.43;7.93;;;;;;;20.95;64.95;98507.03;4843691;29;20045;-79
2021/07/17 00:37:03;;;;;;;13.07;7.70;;;;;;;20.98;64.98;98513.91;4828482;29;20050;-78
2021/07/17 00:39:29;;;;;;;9.63;7.68;;;;;;;20.98;64.46;98514.75;4828982;29;20066;-79
2021/07/17 00:41:55;;;;;;;9.07;7.50;;;;;;;21.13;64.04;98519.13;4859304;29;20057;-79
2021/07/17 00:44:21;;;;;;;13.55;7.85;;;;;;;21.18;63.72;98517.47;4813529;29;20141;-78
2021/07/17 00:46:47;;;;;;;8.55;7.65;;;;;;;21.14;63.63;98504.47;4843428;29;20456;-79
2021/07/17 00:49:13;;;;;;;9.27;7.55;;;;;;;21.23;63.57;98509.50;4828647;29;20154;-80
2021/07/17 00:51:39;;;;;;;13.02;7.93;;;;;;;21.26;63.27;98503.66;4828778;29;20049;-79
2021/07/17 00:54:05;;;;;;;11.23;7.72;;;;;;;21.37;62.95;98504.09;4813510;29;20387;-78
2021/07/17 00:56:31;;;;;;;11.15;7.47;;;;;;;21.43;62.80;98505.94;4813381;29;20485;-79
2021/07/17 00:59:01;;;;;;;11.63;7.68;;;;;;;21.48;62.41;98501.53;4860344;29;20510;-78
2021/07/17 01:01:27;;;;;;;12.32;7.57;;;;;;;21.49;62.36;98511.38;4843454;29;20048;-79
2021/07/17 01:03:54;;;;;;;10.38;7.60;;;;;;;21.51;62.54;98516.56;4828733;29;20050;-79
2021/07/17 01:06:20;;;;;;;11.55;7.13;;;;;;;21.55;62.52;98528.69;4828658;29;20049;-78
2021/07/17 01:08:46;;;;;;;12.70;7.18;;;;;;;21.68;61.88;98527.84;4843622;29;20129;-79
2021/07/17 01:11:12;;;;;;;12.82;7.18;;;;;;;21.64;62.04;98521.16;4828407;29;20049;-80
2021/07/17 01:13:38;;;;;;;9.48;7.53;;;;;;;21.61;62.25;98521.56;4828197;29;20075;-78
2021/07/17 01:16:04;;;;;;;12.45;7.63;;;;;;;21.62;61.85;98525.97;4828594;29;20057;-78
2021/07/17 01:18:37;;;;;;;11.40;7.50;;;;;;;21.68;61.82;98536.00;4858898;29;20050;-79
2021/07/17 01:21:05;;;;;;;9.15;8.25;;;;;;;21.57;62.00;98527.44;4843714;29;20090;-79
2021/07/17 01:23:33;;;;;;;9.70;7.82;;;;;;;21.69;61.94;98543.09;4828776;29;20620;-79
2021/07/17 01:26:00;;;;;;;9.40;8.23;;;;;;;21.51;62.44;98528.31;4768240;29;1361757;-79
2021/07/17 01:28:26;;;;;;;10.35;7.47;;;;;;;21.42;62.54;98535.00;4829224;29;20500;-79
2021/07/17 01:30:52;;;;;;;13.43;7.55;;;;;;;21.27;62.78;98526.22;4844099;29;20085;-79
2021/07/17 01:33:18;;;;;;;9.23;7.95;;;;;;;21.23;63.28;98535.84;4828903;29;20053;-79
2021/07/17 01:35:44;;;;;;;9.00;8.10;;;;;;;21.12;63.79;98542.75;4859241;29;20162;-79
2021/07/17 01:38:10;;;;;;;8.57;7.75;;;;;;;21.03;63.89;98539.44;4814058;29;20053;-79
2021/07/17 01:40:36;;;;;;;9.50;7.88;;;;;;;21.08;63.65;98545.06;4843969;29;20136;-79
2021/07/17 01:43:02;;;;;;;9.30;7.93;;;;;;;20.95;64.09;98552.34;4859334;29;20129;-79
2021/07/17 01:45:41;;;;;;;11.05;8.57;;;;;;;21.00;63.94;98569.72;4859350;29;20148;-79
2021/07/17 01:48:07;;;;;;;11.68;8.10;;;;;;;20.96;64.35;98560.31;4845219;29;20405;-79
2021/07/17 01:50:34;;;;;;;10.25;8.43;;;;;;;21.00;64.27;98567.00;4828906;29;20053;-79
2021/07/17 01:53:00;;;;;;;10.27;8.00;;;;;;;21.19;63.70;98557.19;4859205;29;20049;-79
2021/07/17 01:55:25;;;;;;;11.68;7.70;;;;;;;21.41;63.07;98560.53;4843848;29;20132;-79
2021/07/17 01:57:52;;;;;;;12.57;8.30;;;;;;;21.58;62.57;98559.00;4859565;29;20109;-79
2021/07/17 02:00:18;;;;;;;13.80;7.75;;;;;;;21.64;62.13;98567.41;4862626;29;20509;-79
2021/07/17 02:02:45;;;;;;;10.85;7.70;;;;;;;21.60;62.09;98569.69;4817188;29;20618;-79
2021/07/17 02:05:11;;;;;;;8.93;7.20;;;;;;;21.71;61.72;98573.66;4847438;29;20049;-79
2021/07/17 02:07:38;;;;;;;10.85;7.55;;;;;;;21.76;61.43;98576.56;4862252;29;20438;-79
2021/07/17 02:10:12;;;;;;;8.73;6.95;;;;;;;21.77;61.19;98570.91;4831595;29;20157;-78
2021/07/17 02:12:56;;;;;;;10.07;7.18;;;;;;;21.91;61.04;98593.47;4862788;29;20053;-79
2021/07/17 02:15:23;;;;;;;12.48;7.20;;;;;;;21.96;61.02;98604.53;4817740;29;20049;-78
2021/07/17 02:17:49;;;;;;;11.38;7.72;;;;;;;21.95;60.97;98600.16;4847038;29;20053;-78
2021/07/17 02:20:15;;;;;;;9.35;7.30;;;;;;;21.89;60.96;98590.13;4862444;29;20140;-79
2021/07/17 02:22:41;;;;;;;12.70;7.65;;;;;;;21.93;61.22;98594.09;4862605;29;20106;-79
2021/07/17 02:25:08;;;;;;;8.95;7.70;;;;;;;21.83;61.20;98590.97;4816400;29;20450;-79
2021/07/17 02:27:34;;;;;;;14.35;8.27;;;;;;;21.78;61.67;98607.97;4816732;29;20417;-78
2021/07/17 02:30:00;;;;;;;10.98;7.30;;;;;;;21.80;61.41;98610.44;4831616;29;20494;-78
2021/07/17 02:32:25;;;;;;;10.77;7.30;;;;;;;21.81;61.66;98603.94;4846597;29;20073;-79
2021/07/17 02:34:51;;;;;;;22.73;8.25;;;;;;;21.76;61.79;98603.75;4816270;29;20041;-79
2021/07/17 02:37:17;;;;;;;13.15;7.55;;;;;;;21.91;61.49;98603.53;4861948;29;20113;-79
2021/07/17 02:39:43;;;;;;;18.70;7.65;;;;;;;22.08;61.02;98593.84;4846738;29;20053;-79
2021/07/17 02:42:09;;;;;;;17.30;7.25;;;;;;;22.34;60.18;98579.31;4831363;29;20049;-77
2021/07/17 02:44:35;;;;;;;11.35;7.30;;;;;;;22.63;60.03;98588.78;4831490;29;20080;-78
2021/07/17 02:47:01;;;;;;;14.88;7.20;;;;;;;22.89;59.14;98590.50;4861884;29;20045;-78
2021/07/17 02:49:27;;;;;;;12.00;6.57;;;;;;;23.03;58.50;98578.47;4846879;29;20057;-77
2021/07/17 02:51:55;;;;;;;10.35;6.32;;;;;;;23.25;57.38;98567.19;4831244;29;20054;-79
2021/07/17 02:54:21;;;;;;;13.05;6.63;;;;;;;23.07;57.32;98558.94;4846735;29;20136;-77
2021/07/17 02:56:47;;;;;;;14.80;6.82;;;;;;;22.95;57.73;98554.22;4831194;29;20501;-80
2021/07/17 02:59:13;;;;;;;10.63;6.82;;;;;;;22.84;58.13;98565.81;4861855;29;20092;-80
2021/07/17 03:01:39;;;;;;;11.32;6.63;;;;;;;22.65;58.74;98561.34;4846896;29;20081;-80
2021/07/17 03:04:05;;;;;;;8.75;6.60;;;;;;;22.62;58.86;98561.75;4862918;29;20137;-79
2021/07/17 03:06:31;;;;;;;10.55;6.55;;;;;;;22.75;58.73;98550.75;4861648;29;20128;-81
2021/07/17 03:08:57;;;;;;;8.93;6.72;;;;;;;22.95;58.52;98556.94;4830692;29;20046;-79
2021/07/17 03:11:23;;;;;;;14.00;8.32;;;;;;;22.74;58.16;98560.00;4846358;29;20553;-80
2021/07/17 03:13:49;;;;;;;10.95;7.68;;;;;;;22.75;58.50;98551.63;4845801;29;20049;-80
2021/07/17 03:16:16;;;;;;;11.32;8.95;;;;;;;22.66;58.76;98560.25;4845396;29;20386;-77
2021/07/17 03:18:43;;;;;;;10.82;9.23;;;;;;;22.67;58.91;98564.66;4812574;29;20095;-80
2021/07/17 03:21:10;;;;;;;13.20;8.85;;;;;;;22.90;58.46;98558.63;4843065;29;20062;-79
2021/07/17 03:23:36;;;;;;;16.20;10.00;;;;;;;23.26;57.63;98563.41;4812276;29;20049;-79
2021/07/17 03:26:02;;;;;;;18.42;9.40;;;;;;;23.52;57.32;98563.13;4827338;29;20065;-80
2021/07/17 03:28:28;;;;;;;22.27;9.65;;;;;;;23.80;56.55;98559.09;4797617;29;20046;-79
2021/07/17 03:30:54;;;;;;;16.48;10.20;;;;;;;23.97;55.66;98549.25;4797216;29;20104;-78
2021/07/17 03:33:20;;;;;;;19.50;9.23;;;;;;;24.11;55.13;98549.06;4812591;29;20052;-89
2021/07/17 03:35:46;;;;;;;19.25;8.88;;;;;;;24.31;54.46;98551.56;4827616;29;20046;-77
2021/07/17 03:38:12;;;;;;;14.80;7.95;;;;;;;24.54;53.97;98561.78;4843755;29;20411;-80
2021/07/17 03:40:38;;;;;;;8.48;7.53;;;;;;;24.60;53.01;98575.34;4827511;29;20076;-81
2021/07/17 03:43:04;;;;;;;13.40;7.50;;;;;;;24.78;52.77;98574.44;4827678;29;20054;-81
2021/07/17 03:45:30;;;;;;;14.00;7.68;;;;;;;25.00;52.61;98579.38;4827241;29;20481;-81
2021/07/17 03:47:56;;;;;;;14.10;7.43;;;;;;;25.00;51.67;98582.94;4826547;29;20451;-81
2021/07/17 03:50:22;;;;;;;11.55;7.63;;;;;;;25.16;51.43;98586.91;4812015;29;20069;-79
2021/07/17 03:52:48;;;;;;;16.02;7.50;;;;;;;25.43;51.51;98593.63;4824449;29;20076;-82
2021/07/17 03:55:14;;;;;;;15.57;7.75;;;;;;;25.20;50.79;98596.34;4830225;29;20049;-79
2021/07/17 03:57:40;;;;;;;14.38;8.23;;;;;;;24.98;51.00;98598.75;4845174;29;20076;-78
2021/07/17 04:00:06;;;;;;;14.85;8.25;;;;;;;24.91;51.16;98598.84;4844247;29;20116;-79
2021/07/17 04:02:40;;;;;;;12.20;8.88;;;;;;;24.81;51.59;98593.09;4814990;29;20056;-79
2021/07/17 04:05:08;;;;;;;17.40;10.02;;;;;;;24.73;51.75;98601.63;4846489;29;20394;-82
2021/07/17 04:07:34;;;;;;;21.80;10.52;;;;;;;24.52;52.58;98618.53;4845131;29;20517;-80
2021/07/17 04:10:00;;;;;;;26.58;11.00;;;;;;;24.58;52.84;98617.63;4860548;29;20136;-79
2021/07/17 04:12:26;;;;;;;18.17;12.30;;;;;;;24.54;53.27;98630.06;4845293;29;20073;-79
2021/07/17 04:14:52;;;;;;;21.60;11.77;;;;;;;24.63;53.56;98625.94;4844503;29;20136;-81
2021/07/17 04:17:18;;;;;;;28.23;13.63;;;;;;;24.63;53.56;98625.94;4845632;29;20144;-81
2021/07/17 04:19:44;;;;;;;38.05;14.05;;;;;;;24.59;53.06;98624.75;4830080;29;20106;-79
2021/07/17 04:22:10;;;;;;;17.35;11.25;;;;;;;24.53;52.74;98631.16;4859638;29;20089;-80
2021/07/17 04:24:36;;;;;;;19.27;10.70;;;;;;;24.68;52.69;98628.84;4829610;29;20496;-79
2021/07/17 04:27:02;;;;;;;15.15;9.13;;;;;;;24.74;52.53;98636.09;4829494;29;20053;-82
2021/07/17 04:29:28;;;;;;;13.23;7.38;;;;;;;24.60;53.57;98635.47;4798640;29;20423;-80
2021/07/17 04:31:54;;;;;;;15.18;7.72;;;;;;;24.37;53.68;98611.56;4829391;29;20052;-79
2021/07/17 04:34:20;;;;;;;14.18;7.63;;;;;;;24.22;54.36;98609.22;4844388;29;20143;-77
2021/07/17 04:36:46;;;;;;;9.85;7.22;;;;;;;24.50;54.08;98609.75;4844414;29;20519;-80
2021/07/17 04:39:12;;;;;;;9.13;6.63;;;;;;;24.39;53.52;98611.34;4829355;29;20136;-80
2021/07/17 04:41:38;;;;;;;9.98;6.28;;;;;;;24.58;52.95;98631.28;4843546;29;20139;-81
2021/07/17 04:44:04;;;;;;;11.55;5.40;;;;;;;24.57;52.13;98659.69;4827519;29;20056;-80
2021/07/17 04:46:30;;;;;;;7.82;5.45;;;;;;;24.43;51.14;98657.09;4859059;29;20041;-79
2021/07/17 04:48:56;;;;;;;7.78;4.82;;;;;;;24.46;51.48;98672.22;4859566;29;20037;-80
2021/07/17 04:51:22;;;;;;;9.23;5.00;;;;;;;24.23;51.53;98673.69;4829679;29;20049;-79
2021/07/17 04:53:48;;;;;;;11.27;4.35;;;;;;;24.16;51.79;98656.56;4844563;29;20049;-79
2021/07/17 04:56:13;;;;;;;3.50;2.97;;;;;;;23.90;51.15;98671.31;4829157;29;20143;-80
2021/07/17 04:58:40;;;;;;;5.28;2.33;;;;;;;23.49;50.12;98677.31;4843945;29;20141;-80
2021/07/17 05:01:05;;;;;;;5.90;2.47;;;;;;;23.32;50.97;98681.63;4829028;29;20525;-79
2021/07/17 05:03:31;;;;;;;5.88;3.40;;;;;;;23.41;51.38;98686.63;4859798;29;20077;-80
2021/07/17 05:05:57;;;;;;;6.85;3.28;;;;;;;23.32;51.81;98687.97;4844274;29;20077;-79
2021/07/17 05:08:23;;;;;;;12.40;3.40;;;;;;;23.13;52.60;98694.34;4859325;29;20096;-78
2021/07/17 05:10:49;;;;;;;7.10;3.00;;;;;;;22.81;52.73;98675.22;4813599;29;20087;-80
2021/07/17 05:13:16;;;;;;;7.45;2.70;;;;;;;22.69;53.07;98693.31;4859392;29;20454;-79
2021/07/17 05:15:42;;;;;;;6.65;2.78;;;;;;;22.65;53.72;98692.09;4859515;29;20045;-79
2021/07/17 05:18:08;;;;;;;6.32;2.25;;;;;;;22.37;54.40;98686.94;4828364;29;20065;-83
2021/07/17 05:20:34;;;;;;;3.95;2.72;;;;;;;22.18;54.44;98673.19;4813910;29;20076;-80
2021/07/17 05:23:00;;;;;;;4.18;2.35;;;;;;;22.05;54.99;98703.97;4860811;29;20073;-81
2021/07/17 05:25:26;;;;;;;3.35;2.45;;;;;;;21.88;55.87;98685.56;4859263;29;20065;-78
2021/07/17 05:27:52;;;;;;;5.85;2.20;;;;;;;21.91;55.99;98685.16;4845076;29;20488;-81
2021/07/17 05:30:19;;;;;;;5.53;2.58;;;;;;;21.92;56.31;98709.41;4833496;29;20052;-81
2021/07/17 05:32:46;;;;;;;4.82;2.53;;;;;;;21.82;57.01;98689.97;4864347;29;20098;-80
2021/07/17 05:35:12;;;;;;;4.57;2.63;;;;;;;21.88;56.79;98686.41;4866310;29;20049;-82
2021/07/17 05:37:38;;;;;;;2.83;2.28;;;;;;;21.76;56.41;98671.78;4832777;29;20045;-83
2021/07/17 05:40:05;;;;;;;5.35;2.22;;;;;;;21.41;57.92;98677.44;4817533;29;20132;-84
2021/07/17 05:42:31;;;;;;;7.82;2.60;;;;;;;21.17;59.39;98656.25;4863210;29;20056;-83
2021/07/17 05:44:57;;;;;;;4.03;2.67;;;;;;;21.09;59.95;98654.59;4862634;29;20073;-85
2021/07/17 05:47:23;;;;;;;5.13;3.13;;;;;;;21.03;61.25;98648.13;4863471;29;20046;-79
2021/07/17 05:49:49;;;;;;;5.00;2.88;;;;;;;21.08;61.36;98636.63;4862799;29;20101;-80
2021/07/17 05:52:15;;;;;;;3.58;2.80;;;;;;;21.17;60.92;98618.22;4832394;29;20093;-80
2021/07/17 05:54:41;;;;;;;4.60;2.70;;;;;;;21.41;60.69;98633.94;4863171;29;20140;-83
2021/07/17 05:57:08;;;;;;;3.70;2.72;;;;;;;21.48;60.35;98637.50;4847940;29;20049;-92
2021/07/17 05:59:36;;;;;;;4.63;2.47;;;;;;;21.51;59.60;98658.84;4847916;29;20080;-83
2021/07/17 06:02:06;;;;;;;2.70;2.28;;;;;;;21.42;59.69;98642.94;4832859;29;20088;-80
2021/07/17 06:04:32;;;;;;;2.40;2.22;;;;;;;21.30;59.28;98626.38;4832308;29;20068;-80
2021/07/17 06:06:58;;;;;;;2.92;2.55;;;;;;;21.46;59.14;98633.31;4847055;29;20536;-83
2021/07/17 06:09:24;;;;;;;4.50;3.00;;;;;;;21.68;58.92;98642.06;4818169;29;20049;-83
2021/07/17 06:11:51;;;;;;;4.20;2.80;;;;;;;21.87;59.08;98635.75;4847436;29;20493;-81
2021/07/17 06:14:17;;;;;;;3.78;3.00;;;;;;;21.98;59.05;98632.38;4863151;29;20042;-78
2021/07/17 06:16:43;;;;;;;5.88;2.90;;;;;;;22.12;58.83;98643.25;4862713;29;20050;-78
2021/07/17 06:19:09;;;;;;;7.18;2.65;;;;;;;22.28;58.82;98657.25;4862139;29;20141;-78
2021/07/17 06:21:35;;;;;;;2.70;2.50;;;;;;;22.26;58.86;98637.53;4843348;29;20508;-80
2021/07/17 06:24:01;;;;;;;7.22;3.28;;;;;;;22.47;58.47;98636.44;4813707;29;20098;-83
2021/07/17 06:26:27;;;;;;;3.25;2.88;;;;;;;22.68;58.10;98621.66;4828683;29;20482;-82
2021/07/17 06:28:53;;;;;;;3.63;2.80;;;;;;;22.80;57.39;98608.19;4859251;29;20058;-80
2021/07/17 06:31:19;;;;;;;8.63;3.35;;;;;;;22.95;58.18;98600.56;4798681;29;20046;-87
2021/07/17 06:33:46;;;;;;;4.57;3.33;;;;;;;23.10;58.34;98602.13;4813630;29;20073;-80
2021/07/17 06:36:12;;;;;;;6.10;3.30;;;;;;;23.24;57.87;98603.66;4857811;29;20501;-80
2021/07/17 06:38:38;;;;;;;3.30;2.97;;;;;;;23.18;59.09;98610.03;4814923;29;20045;-81
2021/07/17 06:41:04;;;;;;;3.40;3.10;;;;;;;23.42;58.68;98614.63;4837107;29;20077;-79
2021/07/17 06:43:30;;;;;;;3.47;3.17;;;;;;;23.70;58.37;98608.75;4857959;29;20140;-80
2021/07/17 06:45:56;;;;;;;4.60;3.45;;;;;;;23.80;58.24;98619.13;4827102;29;20416;-80
2021/07/17 06:48:23;;;;;;;7.00;4.22;;;;;;;23.25;59.67;98627.19;4837066;29;20037;-78
2021/07/17 06:50:49;;;;;;;5.38;4.78;;;;;;;23.03;60.18;98618.53;4828902;29;20146;-81
2021/07/17 06:53:15;;;;;;;9.27;4.68;;;;;;;23.32;60.52;98652.50;4814512;29;20041;-80
2021/07/17 06:55:41;;;;;;;8.80;4.80;;;;;;;23.63;59.54;98646.16;4837294;29;20040;-78
2021/07/17 06:58:08;;;;;;;7.15;4.63;;;;;;;23.91;58.56;98648.41;4844832;29;20045;-79
2021/07/17 07:00:35;;;;;;;8.80;5.53;;;;;;;23.89;58.30;98631.44;4880798;29;20057;-80
2021/07/17 07:03:03;;;;;;;6.18;5.00;;;;;;;23.89;58.39;98638.78;4852587;29;20048;-79
2021/07/17 07:05:29;;;;;;;6.70;5.13;;;;;;;23.78;58.05;98634.09;4814323;29;20625;-80
2021/07/17 07:07:55;;;;;;;9.43;6.20;;;;;;;23.67;58.38;98624.75;4812225;29;20391;-80
2021/07/17 07:10:21;;;;;;;9.75;6.10;;;;;;;23.46;59.08;98623.19;4828034;29;20062;-80
2021/07/17 07:12:47;;;;;;;7.85;5.72;;;;;;;23.43;59.14;98621.78;4827557;29;20502;-78
2021/07/17 07:15:14;;;;;;;8.85;5.20;;;;;;;23.42;59.25;98633.72;4827376;29;20084;-78
2021/07/17 07:17:40;;;;;;;7.80;5.22;;;;;;;23.14;59.06;98644.25;4827660;29;20081;-78
2021/07/17 07:20:07;;;;;;;9.70;6.10;;;;;;;22.89;60.57;98664.06;4827417;29;20081;-78
2021/07/17 07:22:33;;;;;;;6.30;5.57;;;;;;;22.35;63.33;98676.28;4842184;29;20049;-78
2021/07/17 07:24:59;;;;;;;10.80;6.82;;;;;;;21.99;65.76;98679.47;4845352;29;20075;-79
2021/07/17 07:27:26;;;;;;;8.60;6.40;;;;;;;21.94;65.83;98669.25;4861061;29;20053;-78
2021/07/17 07:29:52;;;;;;;11.60;6.47;;;;;;;22.03;66.25;98646.19;4845735;29;20057;-78
2021/07/17 07:32:18;;;;;;;10.45;6.97;;;;;;;22.24;65.94;98631.50;4845291;29;20060;-79
2021/07/17 07:34:44;;;;;;;11.63;8.38;;;;;;;22.48;65.37;98616.28;4829990;29;20049;-79
2021/07/17 07:37:11;;;;;;;13.88;7.80;;;;;;;22.62;64.90;98621.69;4830171;29;20609;-78
2021/07/17 07:39:36;;;;;;;15.13;7.97;;;;;;;22.61;65.37;98612.69;4860552;29;20179;-77
2021/07/17 07:42:03;;;;;;;16.27;8.00;;;;;;;22.57;64.88;98613.31;4844923;29;20076;-79
2021/07/17 07:44:31;;;;;;;12.48;7.57;;;;;;;22.67;64.71;98617.25;4815308;29;20037;-79
2021/07/17 07:46:57;;;;;;;12.88;8.95;;;;;;;22.96;64.42;98613.13;4815405;29;20046;-78
2021/07/17 07:49:23;;;;;;;9.77;6.75;;;;;;;23.29;64.09;98605.75;4845246;29;20060;-79
2021/07/17 07:51:49;;;;;;;12.30;6.68;;;;;;;23.40;63.32;98613.22;4829570;29;20045;-79
2021/07/17 07:54:15;;;;;;;8.32;7.05;;;;;;;23.48;63.07;98624.66;4811697;29;20429;-77
2021/07/17 07:56:42;;;;;;;13.95;7.88;;;;;;;23.89;62.93;98615.06;4810624;29;20562;-78
2021/07/17 07:59:08;;;;;;;13.77;8.40;;;;;;;24.44;62.43;98612.31;4842191;29;20081;-78
2021/07/17 08:01:34;;;;;;;15.95;10.45;;;;;;;24.70;62.17;98613.03;4827262;29;20054;-78
2021/07/17 08:04:00;;;;;;;19.10;11.80;;;;;;;24.99;61.65;98622.28;4811854;29;20421;-79
2021/07/17 08:06:26;;;;;;;18.98;12.57;;;;;;;25.12;61.38;98618.53;4813270;29;20050;-81
2021/07/17 08:08:52;;;;;;;21.83;12.77;;;;;;;25.27;60.53;98620.81;4827133;29;20046;-79
2021/07/17 08:11:18;;;;;;;17.30;11.93;;;;;;;25.52;58.84;98628.81;4827343;29;20050;-80
2021/07/17 08:13:44;;;;;;;19.67;11.68;;;;;;;25.57;58.66;98623.47;4813290;29;20049;-87
2021/07/17 08:16:11;;;;;;;17.95;11.70;;;;;;;25.82;58.20;98621.38;4796669;29;20140;-76
2021/07/17 08:18:37;;;;;;;16.02;11.93;;;;;;;26.14;57.44;98632.75;4841747;29;20157;-79
2021/07/17 08:21:04;;;;;;;18.80;12.23;;;;;;;26.42;57.29;98628.41;4842153;29;20050;-79
2021/07/17 08:23:29;;;;;;;18.10;10.68;;;;;;;26.26;54.64;98627.25;4811409;29;20519;-76
2021/07/17 08:25:56;;;;;;;17.48;11.00;;;;;;;26.15;54.36;98634.44;4811253;29;20114;-78
2021/07/17 08:28:22;;;;;;;11.85;10.02;;;;;;;25.55;55.12;98636.56;4811578;29;20042;-80
2021/07/17 08:30:48;;;;;;;16.02;9.80;;;;;;;25.60;56.42;98648.47;4811483;29;20049;-79
2021/07/17 08:33:13;;;;;;;11.25;8.80;;;;;;;25.79;54.97;98641.00;4812136;29;20081;-80
2021/07/17 08:35:39;;;;;;;11.27;8.93;;;;;;;26.52;54.23;98633.31;4826517;29;20058;-80
2021/07/17 08:38:05;;;;;;;21.25;8.98;;;;;;;26.46;52.82;98642.50;4842851;29;20088;-79
2021/07/17 08:40:31;;;;;;;19.52;10.20;;;;;;;26.42;53.68;98644.03;4841344;29;20105;-78
2021/07/17 08:42:57;;;;;;;29.95;10.23;;;;;;;26.56;53.93;98631.75;4826555;29;20133;-77
2021/07/17 08:45:24;;;;;;;28.83;10.73;;;;;;;27.04;53.75;98644.16;4822839;29;20062;-79
2021/07/17 08:47:54;;;;;;;30.23;10.73;;;;;;;27.51;52.32;98628.25;4860080;29;20049;-79
2021/07/17 08:50:24;;;;;;;30.67;10.57;;;;;;;27.41;48.83;98616.28;4833023;29;20056;-77
2021/07/17 08:52:55;;;;;;;28.38;10.38;;;;;;;27.15;50.99;98623.25;4860589;29;20124;-78
2021/07/17 08:55:22;;;;;;;30.02;10.52;;;;;;;27.54;50.67;98625.03;4830873;29;20085;-79
2021/07/17 08:57:48;;;;;;;26.20;10.70;;;;;;;27.60;50.37;98626.75;4844352;29;20061;-78
2021/07/17 09:00:16;;;;;;;29.80;10.27;;;;;;;27.98;49.80;98618.81;4859682;29;20049;-78
2021/07/17 09:02:43;;;;;;;18.15;8.73;;;;;;;28.22;48.35;98623.00;4859346;29;20421;-78
2021/07/17 09:05:11;;;;;;;14.85;7.65;;;;;;;28.43;47.44;98620.53;4859913;29;20049;-78
2021/07/17 09:07:37;;;;;;;15.57;6.53;;;;;;;28.70;46.33;98624.16;4844076;29;20049;-78
2021/07/17 09:10:38;;;;;;;10.13;4.82;;;;;;;29.23;44.44;98632.72;4860652;29;20076;-78
2021/07/17 09:13:34;;;;;;;6.28;4.18;;;;;;;29.52;42.32;98633.22;4829121;29;20049;-79
2021/07/17 09:16:05;;;;;;;7.45;3.90;;;;;;;29.68;42.42;98634.22;4874858;29;20106;-78
2021/07/17 09:18:52;;;;;;;9.00;4.40;;;;;;;29.92;43.07;98632.69;4843811;29;20061;-79
2021/07/17 09:21:30;;;;;;;6.05;3.92;;;;;;;30.16;42.46;98627.63;4859715;29;20045;-78
2021/07/17 09:24:06;;;;;;;6.35;3.67;;;;;;;30.15;42.05;98628.69;4829405;29;20081;-79
2021/07/17 09:26:40;;;;;;;4.10;3.55;;;;;;;30.16;41.34;98619.34;4830335;29;20061;-78
2021/07/17 09:29:08;;;;;;;4.90;3.65;;;;;;;29.91;40.97;98621.97;4829096;29;20097;-79
2021/07/17 09:31:49;;;;;;;6.50;3.92;;;;;;;30.09;42.31;98635.28;4843984;29;20136;-77
2021/07/17 09:34:17;;;;;;;6.97;4.07;;;;;;;30.24;41.88;98627.13;4828658;29;20082;-78
2021/07/17 09:36:56;;;;;;;3.83;3.35;;;;;;;30.25;42.33;98627.97;4829070;29;20144;-78
2021/07/17 09:39:27;;;;;;;3.28;2.85;;;;;;;30.53;40.98;98628.63;4844741;29;20045;-78
2021/07/17 09:42:14;;;;;;;7.90;3.00;;;;;;;30.43;39.32;98621.16;4829796;29;20069;-78
2021/07/17 09:44:40;;;;;;;4.55;3.20;;;;;;;29.19;41.82;98615.88;4844049;29;20046;-79
2021/07/17 09:47:23;;;;;;;6.00;3.00;;;;;;;29.37;43.34;98608.31;4844298;29;20106;-80
2021/07/17 09:49:49;;;;;;;5.32;3.20;;;;;;;29.79;42.83;98613.03;4829012;29;20049;-82
2021/07/17 09:52:17;;;;;;;7.45;3.65;;;;;;;30.41;42.00;98609.56;4828520;29;20049;-78
2021/07/17 09:55:08;;;;;;;5.65;3.42;;;;;;;30.99;41.07;98599.22;4859673;29;20057;-80
2021/07/17 09:57:34;;;;;;;4.82;3.55;;;;;;;31.31;40.25;98589.91;4858990;29;20061;-79
2021/07/17 10:00:23;;;;;;;3.85;3.45;;;;;;;31.69;39.33;98607.84;4843911;29;20065;-79
2021/07/17 10:02:55;;;;;;;9.43;3.60;;;;;;;31.94;39.66;98598.69;4859425;29;20172;-78
2021/07/17 10:05:36;;;;;;;3.63;3.33;;;;;;;32.21;37.35;98590.03;4843981;29;20097;-80
2021/07/17 10:08:15;;;;;;;4.97;2.95;;;;;;;32.17;36.49;98586.19;4843888;29;20041;-78
2021/07/17 10:10:50;;;;;;;6.07;3.20;;;;;;;32.47;35.02;98595.50;4828735;29;20084;-79
2021/07/17 10:13:26;;;;;;;7.65;3.35;;;;;;;32.48;36.08;98597.97;4858303;29;20469;-81
2021/07/17 10:15:52;;;;;;;4.35;3.22;;;;;;;32.93;35.57;98593.28;4858921;29;20059;-79
2021/07/17 10:18:24;;;;;;;5.05;3.50;;;;;;;33.31;34.75;98599.13;4843910;29;20048;-80
2021/07/17 10:20:52;;;;;;;4.63;3.08;;;;;;;33.43;34.88;98596.78;4832823;29;20097;-79
2021/07/17 10:23:22;;;;;;;4.18;3.55;;;;;;;33.86;34.53;98594.19;4861727;29;20051;-79
2021/07/17 10:25:48;;;;;;;4.13;3.30;;;;;;;34.25;33.64;98602.38;4846927;29;20124;-79
2021/07/17 10:28:19;;;;;;;4.15;3.10;;;;;;;34.60;31.99;98580.84;4831452;29;20520;-79
2021/07/17 10:30:45;;;;;;;4.22;3.63;;;;;;;34.68;32.75;98598.78;4861962;29;20037;-77
2021/07/17 10:33:11;;;;;;;6.03;3.15;;;;;;;34.95;32.75;98603.69;4846503;29;20049;-79
2021/07/17 10:35:37;;;;;;;3.70;3.35;;;;;;;35.15;32.80;98599.81;4816274;29;20135;-80
2021/07/17 10:38:06;;;;;;;4.18;3.22;;;;;;;35.65;31.95;98594.53;4861933;29;20534;-78
2021/07/17 10:40:32;;;;;;;5.57;3.58;;;;;;;36.04;31.21;98584.94;4847063;29;20393;-78
2021/07/17 10:42:58;;;;;;;6.00;3.60;;;;;;;36.02;30.45;98584.41;4831201;29;20053;-78
2021/07/17 10:45:43;;;;;;;11.57;3.60;;;;;;;36.43;30.51;98570.47;4846513;29;20145;-78
2021/07/17 10:48:33;;;;;;;6.40;3.70;;;;;;;36.60;30.24;98575.44;4846843;29;20049;-77
2021/07/17 10:51:22;;;;;;;8.45;3.35;;;;;;;35.72;31.50;98578.28;4846295;29;20112;-78
2021/07/17 10:53:49;;;;;;;5.03;3.50;;;;;;;34.71;32.80;98570.44;4848337;29;20045;-79
2021/07/17 10:56:27;;;;;;;6.23;3.60;;;;;;;34.03;33.43;98574.34;4861671;29;20405;-78
2021/07/17 10:59:07;;;;;;;5.65;3.33;;;;;;;34.27;32.08;98561.31;4862760;29;20375;-77
2021/07/17 11:02:00;;;;;;;12.43;3.55;;;;;;;35.55;31.15;98564.97;4862402;29;20092;-79
2021/07/17 11:04:46;;;;;;;6.68;3.35;;;;;;;36.35;29.55;98562.88;4861584;29;20050;-78
2021/07/17 11:07:16;;;;;;;4.15;3.30;;;;;;;36.95;28.25;98554.31;4846074;29;20539;-77
2021/07/17 11:10:08;;;;;;;6.85;3.30;;;;;;;37.05;29.16;98542.94;4830881;29;20440;-78
2021/07/17 11:12:34;;;;;;;8.35;2.97;;;;;;;37.14;28.83;98562.50;4816606;29;20049;-77
2021/07/17 11:15:09;;;;;;;4.18;3.00;;;;;;;37.48;27.92;98561.09;4862146;29;20041;-78
2021/07/17 11:17:46;;;;;;;3.40;2.80;;;;;;;37.55;27.91;98555.91;4829773;29;20565;-77
2021/07/17 11:20:27;;;;;;;3.13;2.85;;;;;;;37.84;26.87;98553.44;4816055;29;20093;-78
2021/07/17 11:23:00;;;;;;;4.70;2.85;;;;;;;37.99;25.75;98559.72;4845873;29;20053;-77
2021/07/17 11:25:26;;;;;;;8.00;2.90;;;;;;;38.43;25.79;98541.16;4862254;29;20080;-78
2021/07/17 11:27:52;;;;;;;4.38;2.55;;;;;;;38.88;25.40;98557.66;4860867;29;20046;-76
2021/07/17 11:30:19;;;;;;;3.20;2.90;;;;;;;38.98;25.83;98551.75;4860596;29;20061;-76
2021/07/17 11:33:03;;;;;;;10.35;3.47;;;;;;;39.43;24.34;98552.22;4845638;29;20049;-79